Time;durP1;ratioP1;P1;durP2;ratioP2;P2;SDS_P1;SDS_P2;PMS_P1;PMS_P2;Temp;Humidity;BMP_temperature;BMP_pressure;BME280_temperature;BME280_humidity;BME280_pressure;Samples;Min_cycle;Max_cycle;Signal;HPM_P1;HPM_P2
2022/07/01 00:01:32;;;;;;;38.15;20.27;;;;;;;11.73;100.00;101367.56;5053179;28;20478;-65
2022/07/01 00:03:58;;;;;;;35.58;19.30;;;;;;;11.68;100.00;101377.25;5052893;28;20092;-64
2022/07/01 00:06:24;;;;;;;34.83;18.80;;;;;;;11.65;100.00;101371.91;5052743;28;20033;-67
2022/07/01 00:08:49;;;;;;;34.70;18.63;;;;;;;11.61;100.00;101364.81;5052899;28;20032;-64
2022/07/01 00:11:15;;;;;;;36.75;19.48;;;;;;;11.57;100.00;101361.25;5052836;28;20501;-63
2022/07/01 00:13:40;;;;;;;36.17;19.42;;;;;;;11.56;100.00;101364.75;5053082;28;20028;-65
2022/07/01 00:16:06;;;;;;;35.67;18.42;;;;;;;11.56;100.00;101359.47;5052404;28;20033;-66
2022/07/01 00:18:31;;;;;;;37.20;19.38;;;;;;;11.54;100.00;101358.56;5052516;28;20033;-66
2022/07/01 00:20:56;;;;;;;37.17;19.92;;;;;;;11.50;100.00;101354.13;5052723;28;20028;-62
2022/07/01 00:23:22;;;;;;;37.03;19.77;;;;;;;11.48;100.00;101362.06;5052483;28;20534;-65
2022/07/01 00:25:47;;;;;;;37.38;19.73;;;;;;;11.49;100.00;101358.53;5052439;28;20087;-65
2022/07/01 00:28:12;;;;;;;39.47;20.38;;;;;;;11.58;100.00;101351.56;5053031;28;20017;-64
2022/07/01 00:30:38;;;;;;;39.15;19.73;;;;;;;11.61;100.00;101354.22;5052354;28;20029;-66
2022/07/01 00:33:04;;;;;;;38.80;20.20;;;;;;;11.62;100.00;101359.53;5052256;28;20048;-65
2022/07/01 00:35:30;;;;;;;37.70;20.05;;;;;;;11.64;100.00;101346.31;5052618;28;20025;-63
2022/07/01 00:37:56;;;;;;;39.00;20.10;;;;;;;11.61;100.00;101331.28;5052412;28;20117;-64
2022/07/01 00:40:22;;;;;;;39.35;20.65;;;;;;;11.63;100.00;101339.22;5052349;28;20442;-64
2022/07/01 00:42:47;;;;;;;39.33;20.58;;;;;;;11.66;100.00;101334.84;5052440;28;20057;-66
2022/07/01 00:45:13;;;;;;;41.35;20.90;;;;;;;11.69;100.00;101334.88;5052537;28;20048;-64
2022/07/01 00:47:40;;;;;;;39.85;20.90;;;;;;;11.71;100.00;101340.19;5052246;28;20025;-63
2022/07/01 00:50:08;;;;;;;38.13;20.33;;;;;;;11.71;100.00;101332.25;5052430;28;20056;-64
2022/07/01 00:52:34;;;;;;;37.88;20.20;;;;;;;11.66;100.00;101326.91;5052445;28;20025;-65
2022/07/01 00:55:03;;;;;;;37.83;20.38;;;;;;;11.69;100.00;101342.81;5052368;28;20036;-64
2022/07/01 00:57:32;;;;;;;37.13;19.75;;;;;;;11.68;100.00;101337.50;5052122;28;20031;-65
2022/07/01 00:59:58;;;;;;;36.88;20.08;;;;;;;11.71;100.00;101342.84;5052343;28;20407;-64
2022/07/01 01:02:23;;;;;;;37.45;20.00;;;;;;;11.73;100.00;101341.06;5052247;28;20075;-65
2022/07/01 01:04:49;;;;;;;36.85;19.73;;;;;;;11.77;100.00;101342.88;5052412;28;20465;-64
2022/07/01 01:07:14;;;;;;;34.63;19.83;;;;;;;11.80;100.00;101352.59;5052006;28;20471;-64
2022/07/01 01:09:40;;;;;;;35.45;19.35;;;;;;;11.83;100.00;101361.44;5052336;28;20079;-65
2022/07/01 01:12:05;;;;;;;35.92;19.42;;;;;;;11.82;100.00;101366.75;5052184;28;20083;-64
2022/07/01 01:14:45;;;;;;;37.45;20.10;;;;;;;11.82;100.00;101364.09;5052228;28;20034;-64
2022/07/01 01:17:12;;;;;;;37.47;20.45;;;;;;;11.89;100.00;101372.97;5051766;28;20027;-64
2022/07/01 01:19:38;;;;;;;38.30;20.25;;;;;;;11.92;100.00;101383.59;5052381;28;20029;-64
2022/07/01 01:22:03;;;;;;;36.85;20.45;;;;;;;11.94;100.00;101382.78;5052152;28;20029;-65
2022/07/01 01:24:28;;;;;;;37.72;20.52;;;;;;;11.98;100.00;101381.00;5051799;28;20075;-66
2022/07/01 01:26:53;;;;;;;38.50;21.17;;;;;;;11.96;100.00;101391.59;5052098;28;20029;-67
2022/07/01 01:29:19;;;;;;;38.80;21.25;;;;;;;11.96;100.00;101393.38;5051820;28;20021;-64
2022/07/01 01:31:44;;;;;;;38.45;20.42;;;;;;;11.99;100.00;101396.94;5051971;28;20025;-63
2022/07/01 01:34:09;;;;;;;38.95;20.60;;;;;;;12.02;100.00;101398.72;5052131;28;20104;-63
2022/07/01 01:36:35;;;;;;;39.60;21.15;;;;;;;12.04;100.00;101389.00;5051669;28;20043;-64
2022/07/01 01:39:12;;;;;;;38.72;21.45;;;;;;;12.00;100.00;101382.81;5051783;28;20029;-63
2022/07/01 01:41:37;;;;;;;38.25;21.08;;;;;;;12.02;100.00;101390.78;5051828;28;20547;-64
2022/07/01 01:44:03;;;;;;;36.50;20.27;;;;;;;12.05;100.00;101388.13;5051777;28;20109;-63
2022/07/01 01:46:29;;;;;;;37.28;21.00;;;;;;;12.04;100.00;101383.69;5053450;28;20372;-63
2022/07/01 01:48:55;;;;;;;40.03;21.13;;;;;;;12.07;100.00;101381.06;5055717;28;20086;-63
2022/07/01 01:51:20;;;;;;;40.15;22.25;;;;;;;12.07;100.00;101382.84;5055004;28;20488;-63
2022/07/01 01:53:45;;;;;;;39.60;22.38;;;;;;;12.05;100.00;101388.13;5055257;28;20025;-63
2022/07/01 01:56:11;;;;;;;42.03;22.38;;;;;;;12.03;100.00;101389.91;5055176;28;20060;-63
2022/07/01 01:58:36;;;;;;;39.25;21.60;;;;;;;12.05;100.00;101380.19;5055115;28;20074;-63
2022/07/01 02:01:02;;;;;;;40.33;21.92;;;;;;;12.04;100.00;101378.41;5054987;28;20057;-64
2022/07/01 02:03:28;;;;;;;41.22;22.88;;;;;;;12.07;100.00;101378.41;5055446;28;20021;-64
2022/07/01 02:05:54;;;;;;;42.08;22.85;;;;;;;12.08;100.00;101388.16;5055336;28;20182;-63
2022/07/01 02:08:19;;;;;;;42.55;23.25;;;;;;;12.06;100.00;101392.56;5054894;28;20100;-63
2022/07/01 02:10:44;;;;;;;41.05;23.60;;;;;;;12.05;100.00;101390.78;5055362;28;20025;-64
2022/07/01 02:13:10;;;;;;;41.42;22.30;;;;;;;12.08;100.00;101406.69;5054803;28;20376;-63
2022/07/01 02:15:35;;;;;;;41.13;24.38;;;;;;;12.02;100.00;101404.88;5054858;28;20082;-63
2022/07/01 02:18:01;;;;;;;39.88;22.63;;;;;;;12.05;100.00;101406.69;5087321;28;20017;-63
2022/07/01 02:20:26;;;;;;;41.47;22.85;;;;;;;12.03;100.00;101422.56;5054728;28;20383;-65
2022/07/01 02:22:51;;;;;;;40.33;22.83;;;;;;;12.07;100.00;101415.53;5055175;28;20044;-69
2022/07/01 02:25:17;;;;;;;43.15;23.90;;;;;;;12.05;100.00;101427.00;5054876;28;20035;-64
2022/07/01 02:27:42;;;;;;;42.13;23.75;;;;;;;12.05;100.00;101433.19;5054702;28;20490;-63
2022/07/01 02:30:08;;;;;;;42.83;23.70;;;;;;;12.07;100.00;101434.06;5054936;28;20545;-68
2022/07/01 02:32:33;;;;;;;42.03;22.48;;;;;;;12.06;100.00;101427.00;5054339;28;20028;-69
2022/07/01 02:34:59;;;;;;;41.17;23.13;;;;;;;12.01;100.00;101402.22;5054674;28;20512;-68
2022/07/01 02:37:26;;;;;;;43.17;23.73;;;;;;;12.05;100.00;101382.84;5054566;28;20095;-63
2022/07/01 02:39:51;;;;;;;41.60;23.10;;;;;;;12.02;100.00;101380.16;5054640;28;20025;-64
2022/07/01 02:42:23;;;;;;;40.72;22.65;;;;;;;12.04;100.00;101391.66;5054193;28;20025;-65
2022/07/01 02:44:48;;;;;;;40.13;23.35;;;;;;;12.01;100.00;101394.28;5054629;28;20367;-63
2022/07/01 02:47:14;;;;;;;40.28;22.58;;;;;;;12.02;100.00;101398.72;5054137;28;20116;-68
2022/07/01 02:49:39;;;;;;;39.85;22.52;;;;;;;12.02;100.00;101412.84;5054245;28;20021;-63
2022/07/01 02:52:05;;;;;;;40.63;23.35;;;;;;;11.99;100.00;101414.59;5054496;28;20025;-66
2022/07/01 02:54:30;;;;;;;42.53;23.15;;;;;;;12.01;100.00;101418.13;5054287;28;20033;-64
2022/07/01 02:56:56;;;;;;;41.80;23.50;;;;;;;12.03;100.00;101413.75;5053027;28;20494;-67
2022/07/01 02:59:21;;;;;;;42.67;24.67;;;;;;;12.01;100.00;101427.00;5053899;28;20025;-64
2022/07/01 03:01:46;;;;;;;43.55;24.40;;;;;;;11.98;100.00;101424.28;5054216;28;20032;-64
2022/07/01 03:04:12;;;;;;;43.45;24.75;;;;;;;11.97;100.00;101418.97;5054183;28;20380;-64
2022/07/01 03:06:37;;;;;;;43.63;24.45;;;;;;;12.01;100.00;101418.13;5053706;28;20112;-64
2022/07/01 03:09:03;;;;;;;44.17;24.77;;;;;;;11.99;100.00;101417.25;5053788;28;20021;-66
2022/07/01 03:11:28;;;;;;;42.88;24.73;;;;;;;11.97;100.00;101424.28;5053942;28;20040;-65
2022/07/01 03:13:54;;;;;;;46.85;26.50;;;;;;;11.98;100.00;101421.63;5053722;28;20021;-64
2022/07/01 03:16:19;;;;;;;47.60;27.52;;;;;;;11.97;100.00;101425.19;5053576;28;20029;-65
2022/07/01 03:18:45;;;;;;;46.97;27.02;;;;;;;11.94;100.00;101425.16;5053875;28;20053;-64
2022/07/01 03:21:10;;;;;;;48.40;26.98;;;;;;;11.94;100.00;101421.59;5053533;28;20090;-65
2022/07/01 03:23:35;;;;;;;47.80;26.63;;;;;;;11.92;100.00;101410.09;5053328;28;20468;-64
2022/07/01 03:26:00;;;;;;;48.35;27.02;;;;;;;11.89;100.00;101416.25;5053661;28;20491;-64
2022/07/01 03:28:26;;;;;;;45.42;26.65;;;;;;;11.88;100.00;101418.88;5053428;28;20090;-64
2022/07/01 03:30:51;;;;;;;47.83;26.33;;;;;;;11.86;100.00;101422.41;5053279;28;20044;-68
2022/07/01 03:33:16;;;;;;;45.33;27.33;;;;;;;11.83;100.00;101409.13;5053766;28;20112;-64
2022/07/01 03:35:45;;;;;;;48.85;28.23;;;;;;;11.81;100.00;101426.78;5052973;28;20057;-64
2022/07/01 03:38:11;;;;;;;45.75;26.92;;;;;;;11.84;100.00;101440.06;5053339;28;20025;-65
2022/07/01 03:40:37;;;;;;;49.90;28.40;;;;;;;11.79;100.00;101455.00;5053448;28;20021;-65
2022/07/01 03:43:03;;;;;;;48.55;27.65;;;;;;;11.83;100.00;101459.47;5053047;28;20032;-64
2022/07/01 03:45:28;;;;;;;45.58;27.25;;;;;;;11.83;100.00;101453.28;5053156;28;20042;-63
2022/07/01 03:47:54;;;;;;;49.72;28.58;;;;;;;11.85;100.00;101464.78;5053393;28;20021;-64
2022/07/01 03:50:23;;;;;;;49.45;28.38;;;;;;;11.85;100.00;101470.97;5052634;28;20503;-62
2022/07/01 03:54:29;;;;;;;48.20;28.33;;;;;;;11.82;100.00;101483.28;5052843;28;20086;-66
2022/07/01 03:55:34;;;;;;;48.30;28.02;;;;;;;11.79;100.00;101484.13;5050291;28;20044;-66
2022/07/01 03:58:00;;;;;;;48.42;28.38;;;;;;;11.79;100.00;101483.25;5053129;28;20108;-62
2022/07/01 04:00:25;;;;;;;46.80;28.23;;;;;;;11.75;100.00;101479.72;5052880;28;20029;-66
2022/07/01 04:02:50;;;;;;;47.95;28.10;;;;;;;11.79;100.00;101489.44;5052966;28;20063;-69
2022/07/01 04:05:16;;;;;;;47.25;28.25;;;;;;;11.80;100.00;101490.34;5052853;28;20024;-63
2022/07/01 04:07:41;;;;;;;46.85;27.65;;;;;;;11.83;100.00;101485.94;5052985;28;20085;-66
2022/07/01 04:10:07;;;;;;;47.85;26.88;;;;;;;11.82;100.00;101496.53;5052598;28;20081;-67
2022/07/01 04:12:32;;;;;;;48.22;28.35;;;;;;;11.82;100.00;101484.19;5052584;28;20039;-65
2022/07/01 04:14:57;;;;;;;48.67;28.92;;;;;;;11.84;100.00;101482.44;5052650;28;20009;-64
2022/07/01 04:17:23;;;;;;;52.10;31.02;;;;;;;11.81;100.00;101476.19;5052668;28;20033;-62
2022/07/01 04:19:48;;;;;;;52.38;31.10;;;;;;;11.82;100.00;101483.28;5052488;28;20048;-63
2022/07/01 04:24:58;;;;;;;51.35;30.38;;;;;;;11.79;100.00;101484.13;5049210;28;20502;-64
2022/07/01 04:27:23;;;;;;;51.05;30.15;;;;;;;11.82;100.00;101483.28;5052674;28;20108;-63
2022/07/01 04:29:48;;;;;;;45.08;27.73;;;;;;;11.80;100.00;101479.75;5052393;28;20025;-64
2022/07/01 04:32:14;;;;;;;46.75;27.48;;;;;;;11.83;100.00;101478.00;5052264;28;20025;-66
2022/07/01 04:34:39;;;;;;;43.92;26.63;;;;;;;11.78;100.00;101492.97;5052441;28;20052;-64
2022/07/01 04:37:04;;;;;;;45.13;26.25;;;;;;;11.81;100.00;101487.72;5052402;28;20028;-66
2022/07/01 04:39:30;;;;;;;44.15;25.77;;;;;;;11.81;100.00;101486.81;5052498;28;20502;-67
2022/07/01 04:42:01;;;;;;;42.72;24.80;;;;;;;11.79;100.00;101489.44;5052324;28;20020;-68
2022/07/01 04:44:32;;;;;;;40.30;23.23;;;;;;;11.81;100.00;101493.00;5048537;28;20056;-68
2022/07/01 04:46:58;;;;;;;40.78;23.55;;;;;;;11.82;100.00;101488.59;5052168;28;20107;-65
2022/07/01 04:49:24;;;;;;;38.97;22.42;;;;;;;11.86;100.00;101501.88;5052611;28;20067;-67
2022/07/01 04:51:50;;;;;;;38.05;21.63;;;;;;;11.83;100.00;101506.25;5052033;28;20446;-64
2022/07/01 04:54:15;;;;;;;37.33;21.13;;;;;;;11.82;100.00;101494.78;5052096;28;20112;-65
2022/07/01 04:56:41;;;;;;;36.20;21.30;;;;;;;11.87;100.00;101502.78;5052531;28;20021;-64
2022/07/01 04:59:06;;;;;;;36.20;19.80;;;;;;;11.90;100.00;101497.50;5052070;28;20431;-67
2022/07/01 05:01:32;;;;;;;34.33;18.90;;;;;;;11.90;100.00;101486.00;5052364;28;20033;-68
2022/07/01 05:03:58;;;;;;;34.38;19.15;;;;;;;11.93;100.00;101488.72;5051993;28;20053;-66
2022/07/01 05:06:24;;;;;;;33.47;18.70;;;;;;;11.94;100.00;101498.44;5052189;28;20033;-67
2022/07/01 05:08:49;;;;;;;31.80;17.83;;;;;;;12.01;100.00;101505.56;5052168;28;20387;-63
2022/07/01 05:11:15;;;;;;;33.13;18.48;;;;;;;12.08;100.00;101504.75;5052164;28;20100;-67
2022/07/01 05:13:41;;;;;;;32.40;18.55;;;;;;;12.18;100.00;101514.56;5051941;28;20025;-64
2022/07/01 05:16:08;;;;;;;32.00;18.42;;;;;;;12.15;100.00;101509.22;5052026;28;20090;-76
2022/07/01 05:24:03;;;;;;;30.80;17.02;;;;;;;12.22;100.00;101504.88;5054825;28;20043;-64
2022/07/01 05:26:28;;;;;;;31.42;17.58;;;;;;;12.24;100.00;101510.19;5055096;28;20100;-63
2022/07/01 05:28:54;;;;;;;30.35;16.88;;;;;;;12.25;100.00;101504.91;5054824;28;20507;-65
2022/07/01 05:31:19;;;;;;;29.15;16.67;;;;;;;12.23;100.00;101506.63;5054425;28;20025;-63
2022/07/01 05:33:45;;;;;;;30.77;16.50;;;;;;;12.26;100.00;101503.13;5054620;28;20123;-63
2022/07/01 05:36:11;;;;;;;30.83;16.77;;;;;;;12.26;100.00;101508.44;5054806;28;20469;-65
2022/07/01 05:38:36;;;;;;;30.65;16.38;;;;;;;12.32;100.00;101504.06;5054991;28;20029;-64
2022/07/01 05:41:02;;;;;;;30.38;17.80;;;;;;;12.33;100.00;101499.66;5054078;28;20064;-64
2022/07/01 05:43:27;;;;;;;30.00;17.42;;;;;;;12.31;100.00;101510.25;5054845;28;20075;-64
2022/07/01 05:45:53;;;;;;;30.73;17.90;;;;;;;12.30;100.00;101502.28;5054186;28;20472;-64
2022/07/01 05:48:18;;;;;;;30.55;17.20;;;;;;;12.32;100.00;101497.88;5054348;28;20033;-64
2022/07/01 05:50:43;;;;;;;30.27;17.48;;;;;;;12.29;100.00;101505.81;5053844;28;20045;-65
2022/07/01 05:53:09;;;;;;;30.95;17.40;;;;;;;12.30;100.00;101507.59;5054711;28;20048;-65
2022/07/01 05:55:35;;;;;;;31.00;17.17;;;;;;;12.30;100.00;101508.47;5054583;28;20127;-65
2022/07/01 05:58:01;;;;;;;30.80;17.58;;;;;;;12.41;100.00;101516.50;5054395;28;20033;-64
2022/07/01 06:00:28;;;;;;;28.90;16.83;;;;;;;12.59;100.00;101521.03;5053455;28;20045;-64
2022/07/01 06:02:53;;;;;;;30.52;17.85;;;;;;;12.70;100.00;101513.19;5054741;28;20032;-63
2022/07/01 06:05:19;;;;;;;29.08;17.17;;;;;;;12.75;100.00;101513.19;5054091;28;20108;-64
2022/07/01 06:07:44;;;;;;;30.02;17.35;;;;;;;12.73;100.00;101502.59;5054190;28;20024;-63
2022/07/01 06:10:10;;;;;;;29.13;17.45;;;;;;;12.65;100.00;101512.25;5053801;28;20025;-64
2022/07/01 06:12:36;;;;;;;30.67;16.30;;;;;;;12.64;100.00;101521.06;5054020;28;20082;-63
2022/07/01 06:15:01;;;;;;;29.48;16.85;;;;;;;12.56;100.00;101521.03;5054050;28;20075;-63
2022/07/01 06:17:27;;;;;;;30.80;17.75;;;;;;;12.55;100.00;101517.50;5049442;28;20477;-62
2022/07/01 06:19:53;;;;;;;30.33;16.60;;;;;;;12.55;100.00;101524.56;5053280;28;20040;-63
2022/07/01 06:22:20;;;;;;;29.98;17.40;;;;;;;12.54;100.00;101521.03;5053809;28;20553;-63
2022/07/01 06:24:46;;;;;;;28.23;16.65;;;;;;;12.53;100.00;101513.06;5054478;28;20065;-63
2022/07/01 06:27:11;;;;;;;28.90;16.67;;;;;;;12.60;100.00;101514.88;5054654;28;20049;-63
2022/07/01 06:29:37;;;;;;;29.33;16.67;;;;;;;12.61;100.00;101513.09;5051045;28;20021;-70
2022/07/01 06:32:04;;;;;;;28.85;16.25;;;;;;;12.58;100.00;101508.66;5052185;28;20045;-70
2022/07/01 06:34:29;;;;;;;28.42;16.40;;;;;;;12.64;100.00;101513.13;5053513;28;20033;-75
2022/07/01 06:36:55;;;;;;;29.02;15.40;;;;;;;12.67;100.00;101505.22;5053792;28;20047;-73
2022/07/01 06:39:21;;;;;;;28.58;16.10;;;;;;;12.81;100.00;101516.75;5053668;28;20025;-75
2022/07/01 06:41:46;;;;;;;28.45;15.10;;;;;;;12.79;100.00;101515.88;5052980;28;20028;-73
2022/07/01 06:44:12;;;;;;;28.75;15.93;;;;;;;12.90;100.00;101508.88;5052382;28;20036;-74
2022/07/01 06:46:37;;;;;;;27.10;14.93;;;;;;;12.94;100.00;101501.78;5052400;28;20070;-73
2022/07/01 06:49:03;;;;;;;27.75;15.48;;;;;;;13.13;100.00;101510.72;5053506;28;20363;-71
2022/07/01 06:51:29;;;;;;;28.00;15.95;;;;;;;13.17;100.00;101501.03;5053285;28;20040;-73
2022/07/01 06:53:54;;;;;;;29.02;14.15;;;;;;;13.20;100.00;101496.59;5051310;28;20029;-70
2022/07/01 06:56:20;;;;;;;26.58;14.57;;;;;;;13.35;100.00;101498.47;5050431;28;20430;-63
2022/07/01 06:58:45;;;;;;;26.30;13.45;;;;;;;13.44;100.00;101505.59;5054209;28;20029;-64
2022/07/01 07:01:11;;;;;;;25.83;13.50;;;;;;;13.57;100.00;101503.81;5053540;28;20029;-64
2022/07/01 07:03:36;;;;;;;24.58;12.38;;;;;;;13.65;100.00;101503.88;5053524;28;20113;-64
2022/07/01 07:06:03;;;;;;;24.98;11.95;;;;;;;13.66;100.00;101517.16;5053807;28;20025;-63
2022/07/01 07:08:30;;;;;;;23.15;11.13;;;;;;;13.68;100.00;101517.16;5053718;28;20535;-64
2022/07/01 07:10:55;;;;;;;24.50;11.10;;;;;;;13.78;100.00;101522.47;5054023;28;20070;-64
2022/07/01 07:13:20;;;;;;;23.55;10.75;;;;;;;13.86;100.00;101527.81;5053870;28;20048;-63
2022/07/01 07:15:46;;;;;;;22.45;10.02;;;;;;;13.91;100.00;101543.78;5053865;28;20120;-66
2022/07/01 07:18:12;;;;;;;20.55;7.78;;;;;;;13.85;100.00;101542.00;5053438;28;20021;-64
2022/07/01 07:20:37;;;;;;;23.05;8.65;;;;;;;13.75;100.00;101540.19;5054024;28;20036;-63
2022/07/01 07:23:03;;;;;;;21.23;8.23;;;;;;;13.71;100.00;101530.44;5053498;28;20021;-64
2022/07/01 07:25:28;;;;;;;22.02;8.70;;;;;;;13.80;100.00;101535.75;5053282;28;20024;-63
2022/07/01 07:27:54;;;;;;;20.30;7.68;;;;;;;13.86;100.00;101533.13;5053616;28;20025;-62
2022/07/01 07:30:20;;;;;;;20.95;7.43;;;;;;;13.87;100.00;101528.69;5053354;28;20056;-65
2022/07/01 07:32:46;;;;;;;21.52;7.57;;;;;;;13.94;100.00;101534.03;5053711;28;20345;-66
2022/07/01 07:35:12;;;;;;;21.08;7.97;;;;;;;14.09;100.00;101540.25;5053307;28;20104;-63
2022/07/01 07:37:39;;;;;;;21.13;7.00;;;;;;;14.07;100.00;101534.91;5053329;28;20116;-63
2022/07/01 07:40:07;;;;;;;18.98;6.30;;;;;;;14.08;100.00;101530.47;5053452;28;20033;-65
2022/07/01 07:42:33;;;;;;;20.13;7.00;;;;;;;14.10;100.00;101537.59;5053421;28;20087;-69
2022/07/01 07:44:59;;;;;;;19.90;6.90;;;;;;;14.13;100.00;101542.03;5052522;28;20025;-64
2022/07/01 07:47:24;;;;;;;20.67;6.07;;;;;;;14.17;100.00;101549.13;5053281;28;20079;-68
2022/07/01 07:49:50;;;;;;;17.73;5.70;;;;;;;14.24;100.00;101545.56;5052943;28;20025;-63
2022/07/01 07:52:15;;;;;;;17.55;5.25;;;;;;;14.35;100.00;101547.34;5052872;28;20041;-63
2022/07/01 07:54:40;;;;;;;18.38;5.03;;;;;;;14.47;100.00;101553.56;5052966;28;20037;-67
2022/07/01 07:57:07;;;;;;;15.95;4.43;;;;;;;14.59;100.00;101557.97;5052655;28;20021;-63
2022/07/01 07:59:33;;;;;;;17.10;4.70;;;;;;;14.77;100.00;101567.72;5053237;28;20452;-63
2022/07/01 08:01:58;;;;;;;14.20;4.07;;;;;;;14.90;100.00;101557.09;5052983;28;20032;-65
2022/07/01 08:04:24;;;;;;;13.35;3.80;;;;;;;14.91;100.00;101554.41;5052696;28;20029;-64
2022/07/01 08:06:49;;;;;;;14.68;3.60;;;;;;;14.95;100.00;101565.94;5052931;28;20025;-69
2022/07/01 08:09:14;;;;;;;14.27;3.80;;;;;;;15.03;100.00;101573.88;5052862;28;20383;-70
2022/07/01 08:11:40;;;;;;;12.63;3.40;;;;;;;15.13;100.00;101570.31;5052721;28;20094;-69
2022/07/01 08:14:05;;;;;;;9.88;3.33;;;;;;;15.18;100.00;101567.66;5052592;28;20096;-64
2022/07/01 08:16:31;;;;;;;12.82;3.70;;;;;;;15.31;100.00;101575.56;5052686;28;20040;-62
2022/07/01 08:18:56;;;;;;;11.07;2.90;;;;;;;15.39;100.00;101578.22;5052661;28;20103;-63
2022/07/01 08:21:21;;;;;;;11.43;3.63;;;;;;;15.54;100.00;101577.28;5052877;28;20029;-62
2022/07/01 08:23:47;;;;;;;11.80;3.10;;;;;;;15.66;100.00;101579.88;5052698;28;20070;-63
2022/07/01 08:26:14;;;;;;;13.63;3.40;;;;;;;15.75;100.00;101580.72;5052501;28;20464;-63
2022/07/01 08:28:40;;;;;;;11.65;3.20;;;;;;;15.85;100.00;101593.13;5052741;28;20094;-63
2022/07/01 08:31:05;;;;;;;13.45;3.50;;;;;;;15.90;100.00;101586.00;5052728;28;20021;-65
2022/07/01 08:33:30;;;;;;;12.48;3.10;;;;;;;15.97;100.00;101587.72;5052587;28;20025;-64
2022/07/01 08:35:56;;;;;;;12.75;2.70;;;;;;;16.16;100.00;101590.25;5052459;28;20036;-63
2022/07/01 08:38:22;;;;;;;14.13;3.47;;;;;;;16.39;100.00;101590.97;5052573;28;20033;-63
2022/07/01 08:40:47;;;;;;;8.27;2.80;;;;;;;16.39;100.00;101598.09;5052181;28;20029;-64
2022/07/01 08:43:12;;;;;;;10.95;2.80;;;;;;;16.26;100.00;101594.63;5052511;28;20035;-65
2022/07/01 08:45:38;;;;;;;11.40;2.88;;;;;;;16.46;100.00;101609.63;5052291;28;20089;-66
2022/07/01 08:48:04;;;;;;;12.13;3.20;;;;;;;16.57;100.00;101615.72;5052243;28;20021;-64
2022/07/01 08:50:33;;;;;;;10.68;2.80;;;;;;;16.48;100.00;101610.47;5052399;28;20049;-64
2022/07/01 08:52:59;;;;;;;11.18;3.10;;;;;;;16.52;100.00;101606.91;5052103;28;20029;-65
2022/07/01 08:55:25;;;;;;;8.55;2.97;;;;;;;16.73;100.00;101628.06;5054287;28;20021;-64
2022/07/01 08:57:51;;;;;;;12.90;3.40;;;;;;;16.90;100.00;101627.06;5056449;28;20021;-66
2022/07/01 09:00:17;;;;;;;10.27;3.00;;;;;;;16.91;100.00;101634.19;5056225;28;20465;-65
2022/07/01 09:02:59;;;;;;;12.82;3.42;;;;;;;16.96;100.00;101640.34;5056213;28;20029;-64
2022/07/01 09:05:26;;;;;;;11.82;2.90;;;;;;;16.98;100.00;101633.22;5052118;28;20082;-68
2022/07/01 09:08:00;;;;;;;10.75;2.80;;;;;;;16.91;100.00;101628.84;5056243;28;20060;-65
2022/07/01 09:10:26;;;;;;;13.50;2.97;;;;;;;16.95;100.00;101635.00;5052255;28;20067;-68
2022/07/01 09:12:51;;;;;;;13.80;3.08;;;;;;;17.10;100.00;101626.88;5056077;28;20021;-70
2022/07/01 09:15:28;;;;;;;10.90;3.00;;;;;;;17.32;100.00;101637.31;5056128;28;20367;-64
2022/07/01 09:17:56;;;;;;;11.65;3.08;;;;;;;17.43;100.00;101630.06;5052101;28;20379;-63
2022/07/01 09:20:30;;;;;;;9.60;3.05;;;;;;;17.42;100.00;101623.81;5056119;28;20025;-64
2022/07/01 09:22:59;;;;;;;11.55;2.90;;;;;;;17.40;100.00;101625.66;5052290;28;20079;-63
2022/07/01 09:25:31;;;;;;;11.27;2.90;;;;;;;17.29;100.00;101629.34;5052054;28;20498;-63
2022/07/01 09:28:26;;;;;;;13.32;3.10;;;;;;;17.37;100.00;101639.03;5052315;28;20052;-63
2022/07/01 09:30:54;;;;;;;12.52;3.03;;;;;;;17.50;100.00;101630.88;5055193;28;20558;-63
2022/07/01 09:33:26;;;;;;;11.93;3.20;;;;;;;17.50;97.09;101633.53;5055711;28;20083;-63
2022/07/01 09:35:53;;;;;;;11.20;3.10;;;;;;;17.64;97.96;101634.25;5055827;28;20078;-63
2022/07/01 09:38:20;;;;;;;9.80;2.58;;;;;;;17.78;88.93;101636.78;5055802;28;20040;-65
2022/07/01 09:40:51;;;;;;;10.20;2.50;;;;;;;17.47;84.95;101642.47;5055448;28;20112;-63
2022/07/01 09:43:18;;;;;;;10.32;2.60;;;;;;;17.55;88.39;101645.06;5055297;28;20033;-63
2022/07/01 09:45:54;;;;;;;9.65;2.70;;;;;;;17.69;93.25;101648.47;5055369;28;20112;-63
2022/07/01 09:48:21;;;;;;;9.57;2.97;;;;;;;17.77;97.45;101645.69;5055646;28;20037;-63
2022/07/01 09:50:47;;;;;;;10.15;3.00;;;;;;;17.94;96.77;101627.66;5055185;28;20136;-65
2022/07/01 09:53:13;;;;;;;9.15;2.97;;;;;;;18.06;96.16;101641.78;5055221;28;20065;-65
2022/07/01 09:55:39;;;;;;;14.20;3.03;;;;;;;18.37;93.75;101642.19;5055228;28;20035;-68
2022/07/01 09:58:08;;;;;;;10.82;3.00;;;;;;;18.70;96.34;101644.34;5055293;28;20021;-66
2022/07/01 10:00:36;;;;;;;11.52;2.90;;;;;;;18.62;87.33;101642.69;5055285;28;20021;-65
2022/07/01 10:03:02;;;;;;;9.52;2.75;;;;;;;18.66;88.40;101638.16;5055197;28;20023;-67
2022/07/01 10:05:31;;;;;;;9.90;2.60;;;;;;;18.82;90.26;101642.34;5055261;28;20098;-65
2022/07/01 10:08:21;;;;;;;9.20;2.30;;;;;;;19.28;80.71;101654.06;5050690;28;20029;-68
2022/07/01 10:11:10;;;;;;;9.10;2.40;;;;;;;19.67;77.04;101655.94;5054268;28;20037;-64
2022/07/01 10:13:36;;;;;;;8.00;2.47;;;;;;;20.60;69.01;101664.66;5052540;28;20396;-67
2022/07/01 10:16:03;;;;;;;7.80;2.30;;;;;;;21.12;67.96;101649.91;5055045;28;20068;-68
2022/07/01 10:18:29;;;;;;;11.13;2.30;;;;;;;21.19;68.25;101662.25;5054901;28;20025;-65
2022/07/01 10:20:56;;;;;;;8.07;2.25;;;;;;;21.22;68.35;101662.16;5050718;28;20112;-66
2022/07/01 10:23:24;;;;;;;6.68;2.20;;;;;;;22.01;66.04;101669.81;5054584;28;20025;-65
2022/07/01 10:25:51;;;;;;;9.05;2.45;;;;;;;22.51;64.50;101671.88;5055044;28;20078;-66
2022/07/01 10:28:27;;;;;;;9.90;2.38;;;;;;;21.33;65.45;101669.03;5054677;28;20017;-64
2022/07/01 10:31:02;;;;;;;9.38;2.38;;;;;;;20.74;67.47;101678.66;5054880;28;20040;-65
2022/07/01 10:33:40;;;;;;;9.73;2.30;;;;;;;19.94;70.05;101677.78;5050871;28;20472;-67
2022/07/01 10:36:10;;;;;;;10.27;2.47;;;;;;;20.52;70.53;101684.50;5052139;28;20040;-65
2022/07/01 10:39:03;;;;;;;8.68;2.13;;;;;;;20.63;70.55;101683.38;5054474;28;20380;-68
2022/07/01 10:41:30;;;;;;;9.73;2.20;;;;;;;19.95;67.64;101676.84;5051124;28;20033;-63
2022/07/01 10:43:57;;;;;;;12.60;2.20;;;;;;;21.32;65.33;101683.41;5050485;28;20021;-69
2022/07/01 10:46:37;;;;;;;8.32;2.30;;;;;;;22.20;63.35;101671.00;5054545;28;20040;-66
2022/07/01 10:49:03;;;;;;;8.73;2.17;;;;;;;23.33;60.63;101675.41;5051672;28;20079;-67
2022/07/01 10:51:50;;;;;;;7.40;2.20;;;;;;;24.45;50.72;101677.44;5054426;28;20075;-67
2022/07/01 10:54:33;;;;;;;11.40;2.42;;;;;;;24.72;46.79;101675.47;5053353;28;20029;-66
2022/07/01 10:57:18;;;;;;;9.15;2.10;;;;;;;25.36;44.40;101670.94;5050783;28;20033;-64
2022/07/01 10:59:48;;;;;;;8.65;2.20;;;;;;;26.35;39.07;101667.22;5054216;28;20096;-64
2022/07/01 11:02:28;;;;;;;7.75;2.10;;;;;;;24.85;40.56;101667.72;5053994;28;20062;-64
2022/07/01 11:05:06;;;;;;;4.88;2.10;;;;;;;22.76;44.79;101670.13;5053797;28;20531;-64
2022/07/01 11:07:35;;;;;;;11.35;2.10;;;;;;;21.79;46.34;101665.09;5051124;28;20079;-67
2022/07/01 11:10:02;;;;;;;7.40;2.10;;;;;;;21.94;47.99;101678.09;5054029;28;20025;-69
2022/07/01 11:12:29;;;;;;;7.88;2.10;;;;;;;23.61;44.85;101661.75;5054024;28;20025;-67
2022/07/01 11:14:57;;;;;;;10.98;2.30;;;;;;;24.74;42.16;101665.44;5049584;28;20067;-65